Observation data for Seminole on 03/11/2018      Previous  Date  Next       Current Mesonet Observations  Soil Data  Daily Summary Page  Observations in Plain Language
KSM1 110600Z 32009KT 20/M07 A2989 RMK A01 T01981065  RH  016%=      5-min Rain = 0
KSM1 110605Z 32009KT 20/M07 A2989 RMK A01 T02021068  RH  016%=      5-min Rain = 0
KSM1 110610Z 33009KT 20/M07 A299 RMK A01 T02001068  RH  016%=      5-min Rain = 0
KSM1 110615Z 33010KT 20/M07 A299 RMK A01 T01991067  RH  016%=      5-min Rain = 0
KSM1 110620Z 33009KT 20/M07 A299 RMK A01 T01981065  RH  017%=      5-min Rain = 0
KSM1 110625Z 33008KT 20/M07 A2991 RMK A01 T01971066  RH  017%=      5-min Rain = 0
KSM1 110630Z 33008KT 20/M06 A2991 RMK A01 T01961064  RH  017%=      5-min Rain = 0
KSM1 110635Z 31006KT 19/M06 A2991 RMK A01 T01921060  RH  018%=      5-min Rain = 0
KSM1 110640Z 32006KT 18/M05 A2991 RMK A01 T01831053  RH  020%=      5-min Rain = 0
KSM1 110645Z 33006KT 18/M06 A2991 RMK A01 T01811060  RH  019%=      5-min Rain = 0
KSM1 110650Z 32006KT 18/M06 A2991 RMK A01 T01831059  RH  019%=      5-min Rain = 0
KSM1 110655Z 33006KT 18/M06 A2991 RMK A01 T01821055  RH  020%=      5-min Rain = 0
KSM1 110700Z 34005KT 18/M06 A2991 RMK A01 T01781056  RH  020%=      5-min Rain = 0
KSM1 110705Z 33006KT 17/M05 A2991 RMK A01 T01721054  RH  021%=      5-min Rain = 0
KSM1 110710Z 35015G22KT 17/M07 A2992 RMK A01 T01731067  RH  019%=      5-min Rain = 0
KSM1 110715Z 36018KT 18/M10 A2992 RMK A01 T01791095  RH  015%=      5-min Rain = 0
KSM1 110720Z 02019G30KT 18/M10 A2993 RMK A01 T01781097  RH  015%=      5-min Rain = 0
KSM1 110725Z 02025G33KT 17/M10 A2994 RMK A01 T01721102  RH  015%=      5-min Rain = 0
KSM1 110730Z 01023G30KT 16/M10 A2994 RMK A01 T01641097  RH  016%=      5-min Rain = 0
KSM1 110735Z 01023G30KT 16/M09 A2995 RMK A01 T01601092  RH  017%=      5-min Rain = 0
KSM1 110740Z 01026G34KT 16/M09 A2996 RMK A01 T01551093  RH  017%=      5-min Rain = 0
KSM1 110745Z 01023G29KT 15/M09 A2996 RMK A01 T01501093  RH  018%=      5-min Rain = 0
KSM1 110750Z 00022G28KT 14/M09 A2997 RMK A01 T01441092  RH  019%=      5-min Rain = 0
KSM1 110755Z 01023G29KT 14/M09 A2997 RMK A01 T01401089  RH  020%=      5-min Rain = 0
KSM1 110800Z 00020G29KT 14/M09 A2998 RMK A01 T01361086  RH  021%=      5-min Rain = 0
KSM1 110805Z 01022G31KT 13/M08 A2998 RMK A01 T01311080  RH  023%=      5-min Rain = 0
KSM1 110810Z 01023G29KT 13/M08 A2998 RMK A01 T01291075  RH  024%=      5-min Rain = 0
KSM1 110815Z 01023G29KT 13/M07 A2998 RMK A01 T01271071  RH  025%=      5-min Rain = 0
KSM1 110820Z 01024G31KT 13/M07 A2999 RMK A01 T01261069  RH  025%=      5-min Rain = 0
KSM1 110825Z 01023G29KT 13/M07 A2999 RMK A01 T01251067  RH  026%=      5-min Rain = 0
KSM1 110830Z 01021G28KT 12/M07 A2999 RMK A01 T01241065  RH  026%=      5-min Rain = 0
KSM1 110835Z 01020G26KT 12/M06 A30 RMK A01 T01231063  RH  027%=      5-min Rain = 0
KSM1 110840Z 02022G29KT 12/M06 A30 RMK A01 T01221061  RH  027%=      5-min Rain = 0
KSM1 110845Z 02024G32KT 12/M06 A30 RMK A01 T01221061  RH  028%=      5-min Rain = 0
KSM1 110850Z 02023G31KT 12/M06 A30 RMK A01 T01221061  RH  028%=      5-min Rain = 0
KSM1 110855Z 02025G31KT 12/M06 A30 RMK A01 T01221061  RH  028%=      5-min Rain = 0
KSM1 110900Z 02023G30KT 12/M06 A3001 RMK A01 T01221062  RH  028%=      5-min Rain = 0
KSM1 110905Z 02024G30KT 12/M06 A3001 RMK A01 T01211061  RH  028%=      5-min Rain = 0
KSM1 110910Z 03023G29KT 12/M06 A3001 RMK A01 T01211061  RH  028%=      5-min Rain = 0
KSM1 110915Z 03023G30KT 12/M06 A3001 RMK A01 T01201061  RH  028%=      5-min Rain = 0
KSM1 110920Z 02022G28KT 12/M06 A3001 RMK A01 T01191062  RH  028%=      5-min Rain = 0
KSM1 110925Z 02024G29KT 12/M06 A3001 RMK A01 T01181061  RH  028%=      5-min Rain = 0
KSM1 110930Z 02025G34KT 12/M06 A3002 RMK A01 T01181061  RH  028%=      5-min Rain = 0
KSM1 110935Z 03024G31KT 12/M06 A3002 RMK A01 T01181061  RH  028%=      5-min Rain = 0
KSM1 110940Z 03025G32KT 12/M06 A3002 RMK A01 T01171060  RH  029%=      5-min Rain = 0
KSM1 110945Z 03024G35KT 12/M06 A3002 RMK A01 T01161059  RH  029%=      5-min Rain = 0
KSM1 110950Z 02022G30KT 12/M06 A3002 RMK A01 T01161058  RH  029%=      5-min Rain = 0
KSM1 110955Z 02021G28KT 12/M06 A3003 RMK A01 T01151057  RH  030%=      5-min Rain = 0
KSM1 111000Z 02023G33KT 11/M06 A3003 RMK A01 T01141056  RH  030%=      5-min Rain = 0
KSM1 111005Z 03023G29KT 11/M05 A3004 RMK A01 T01141054  RH  031%=      5-min Rain = 0
KSM1 111010Z 03023G29KT 11/M05 A3004 RMK A01 T01131053  RH  031%=      5-min Rain = 0
KSM1 111015Z 03024G31KT 11/M05 A3004 RMK A01 T01121052  RH  031%=      5-min Rain = 0
KSM1 111020Z 03024G30KT 11/M05 A3003 RMK A01 T01111051  RH  032%=      5-min Rain = 0
KSM1 111025Z 03019G27KT 11/M05 A3004 RMK A01 T01101051  RH  032%=      5-min Rain = 0
KSM1 111030Z 03022G29KT 11/M05 A3004 RMK A01 T01091051  RH  033%=      5-min Rain = 0
KSM1 111035Z 03025G32KT 11/M05 A3004 RMK A01 T01101050  RH  032%=      5-min Rain = 0
KSM1 111040Z 03023G29KT 11/M05 A3004 RMK A01 T01091050  RH  033%=      5-min Rain = 0
KSM1 111045Z 03022G29KT 11/M05 A3004 RMK A01 T01091051  RH  033%=      5-min Rain = 0
KSM1 111050Z 03020G28KT 11/M05 A3005 RMK A01 T01091051  RH  033%=      5-min Rain = 0
KSM1 111055Z 03019G26KT 11/M05 A3006 RMK A01 T01081051  RH  033%=      5-min Rain = 0
KSM1 111100Z 02019G26KT 11/M05 A3006 RMK A01 T01081052  RH  033%=      5-min Rain = 0
KSM1 111105Z 03020G26KT 11/M05 A3006 RMK A01 T01071052  RH  033%=      5-min Rain = 0
KSM1 111110Z 03022G28KT 11/M05 A3006 RMK A01 T01071052  RH  033%=      5-min Rain = 0
KSM1 111115Z 03019G25KT 11/M05 A3007 RMK A01 T01071052  RH  033%=      5-min Rain = 0
KSM1 111120Z 03018G24KT 11/M05 A3007 RMK A01 T01061052  RH  033%=      5-min Rain = 0
KSM1 111125Z 03017KT 11/M05 A3008 RMK A01 T01061052  RH  033%=      5-min Rain = 0
KSM1 111130Z 03018G24KT 11/M05 A3008 RMK A01 T01061053  RH  033%=      5-min Rain = 0
KSM1 111135Z 03019G24KT 11/M06 A3009 RMK A01 T01061055  RH  032%=      5-min Rain = 0
KSM1 111140Z 02016G22KT 11/M06 A3009 RMK A01 T01061058  RH  032%=      5-min Rain = 0
KSM1 111145Z 02018KT 11/M06 A3009 RMK A01 T01061061  RH  031%=      5-min Rain = 0
KSM1 111150Z 03017G25KT 11/M07 A3009 RMK A01 T01051065  RH  030%=      5-min Rain = 0
KSM1 111155Z 02017G22KT 11/M07 A301 RMK A01 T01051069  RH  029%=      5-min Rain = 0
KSM1 111200Z 02018G23KT 11/M07 A301 RMK A01 T01051071  RH  029%=      5-min Rain = 0
KSM1 111205Z 03018G24KT 11/M07 A301 RMK A01 T01051072  RH  028%=      5-min Rain = 0
KSM1 111210Z 02019G25KT 10/M08 A3011 RMK A01 T01041075  RH  028%=      5-min Rain = 0
KSM1 111215Z 02021G27KT 10/M08 A3012 RMK A01 T01041078  RH  027%=      5-min Rain = 0
KSM1 111220Z 02020G25KT 10/M08 A3013 RMK A01 T01041080  RH  027%=      5-min Rain = 0
KSM1 111225Z 02021G28KT 10/M08 A3013 RMK A01 T01041083  RH  026%=      5-min Rain = 0
KSM1 111230Z 02020G27KT 10/M09 A3013 RMK A01 T01031085  RH  026%=      5-min Rain = 0
KSM1 111235Z 03022G29KT 10/M09 A3013 RMK A01 T01031085  RH  026%=      5-min Rain = 0
KSM1 111240Z 03022G28KT 10/M09 A3014 RMK A01 T01021085  RH  026%=      5-min Rain = 0
KSM1 111245Z 03022G29KT 10/M08 A3014 RMK A01 T01021084  RH  026%=      5-min Rain = 0
KSM1 111250Z 02020G26KT 10/M08 A3015 RMK A01 T01021083  RH  027%=      5-min Rain = 0
KSM1 111255Z 03020G26KT 10/M08 A3015 RMK A01 T01011081  RH  027%=      5-min Rain = 0
KSM1 111300Z 03021G28KT 10/M08 A3016 RMK A01 T01001079  RH  028%=      5-min Rain = 0
KSM1 111305Z 03019G27KT 10/M08 A3016 RMK A01 T01001078  RH  028%=      5-min Rain = 0
KSM1 111310Z 02017G24KT 10/M08 A3017 RMK A01 T00991079  RH  028%=      5-min Rain = 0
KSM1 111315Z 02017KT 10/M08 A3018 RMK A01 T00991078  RH  028%=      5-min Rain = 0
KSM1 111320Z 01015G21KT 10/M08 A3018 RMK A01 T00981076  RH  029%=      5-min Rain = 0
KSM1 111325Z 02016G22KT 10/M07 A3018 RMK A01 T00971074  RH  030%=      5-min Rain = 0
KSM1 111330Z 02015G21KT 10/M07 A3018 RMK A01 T00971073  RH  030%=      5-min Rain = 0
KSM1 111335Z 01017G23KT 10/M07 A3019 RMK A01 T00961071  RH  030%=      5-min Rain = 0
KSM1 111340Z 02018G23KT 10/M07 A3018 RMK A01 T00961069  RH  031%=      5-min Rain = 0
KSM1 111345Z 02019G24KT 10/M07 A3019 RMK A01 T00951068  RH  031%=      5-min Rain = 0
KSM1 111350Z 02018G23KT 10/M07 A3019 RMK A01 T00951068  RH  031%=      5-min Rain = 0
KSM1 111355Z 02018G24KT 10/M07 A3019 RMK A01 T00951068  RH  031%=      5-min Rain = 0
KSM1 111400Z 02017G22KT 10/M07 A302 RMK A01 T00951068  RH  031%=      5-min Rain = 0
KSM1 111405Z 02017G22KT 10/M07 A302 RMK A01 T00951065  RH  032%=      5-min Rain = 0
KSM1 111410Z 02017G22KT 09/M06 A302 RMK A01 T00941064  RH  033%=      5-min Rain = 0
KSM1 111415Z 02017G23KT 09/M06 A302 RMK A01 T00931064  RH  033%=      5-min Rain = 0
KSM1 111420Z 02019G25KT 09/M06 A3021 RMK A01 T00921063  RH  033%=      5-min Rain = 0
KSM1 111425Z 02020G26KT 09/M07 A3021 RMK A01 T00911065  RH  033%=      5-min Rain = 0
KSM1 111430Z 03017G23KT 09/M07 A3021 RMK A01 T00921065  RH  033%=      5-min Rain = 0
KSM1 111435Z 02018G24KT 09/M07 A3022 RMK A01 T00921065  RH  033%=      5-min Rain = 0
KSM1 111440Z 02020KT 09/M07 A3022 RMK A01 T00921067  RH  032%=      5-min Rain = 0
KSM1 111445Z 02018G23KT 09/M07 A3023 RMK A01 T00921067  RH  032%=      5-min Rain = 0
KSM1 111450Z 02020KT 09/M07 A3023 RMK A01 T00921068  RH  032%=      5-min Rain = 0
KSM1 111455Z 02018G23KT 09/M07 A3023 RMK A01 T00911068  RH  032%=      5-min Rain = 0
KSM1 111500Z 02018G24KT 09/M07 A3024 RMK A01 T00911069  RH  032%=      5-min Rain = 0
KSM1 111505Z 02018G23KT 09/M07 A3024 RMK A01 T00911070  RH  032%=      5-min Rain = 0
KSM1 111510Z 02018G24KT 09/M07 A3024 RMK A01 T00921070  RH  032%=      5-min Rain = 0
KSM1 111515Z 02020G25KT 09/M07 A3024 RMK A01 T00911072  RH  031%=      5-min Rain = 0
KSM1 111520Z 03020KT 09/M07 A3024 RMK A01 T00901073  RH  031%=      5-min Rain = 0
KSM1 111525Z 02018KT 09/M08 A3025 RMK A01 T00911075  RH  031%=      5-min Rain = 0
KSM1 111530Z 02019KT 09/M08 A3025 RMK A01 T00901077  RH  030%=      5-min Rain = 0
KSM1 111535Z 02016G21KT 09/M08 A3025 RMK A01 T00911077  RH  030%=      5-min Rain = 0
KSM1 111540Z 02016G21KT 09/M08 A3025 RMK A01 T00921077  RH  030%=      5-min Rain = 0
KSM1 111545Z 02017G24KT 09/M08 A3026 RMK A01 T00931078  RH  029%=      5-min Rain = 0
KSM1 111550Z 02019G24KT 09/M08 A3026 RMK A01 T00921083  RH  029%=      5-min Rain = 0
KSM1 111555Z 02019G24KT 09/M09 A3026 RMK A01 T00931086  RH  028%=      5-min Rain = 0
KSM1 111600Z 03019G24KT 09/M09 A3027 RMK A01 T00941090  RH  027%=      5-min Rain = 0
KSM1 111605Z 02017KT 10/M09 A3027 RMK A01 T00951087  RH  027%=      5-min Rain = 0
KSM1 111610Z 01017G23KT 10/M09 A3027 RMK A01 T00961087  RH  027%=      5-min Rain = 0
KSM1 111615Z 02017G23KT 09/M09 A3027 RMK A01 T00931092  RH  026%=      5-min Rain = 0
KSM1 111620Z 02016G22KT 09/M09 A3028 RMK A01 T00941093  RH  026%=      5-min Rain = 0
KSM1 111625Z 02015KT 09/M09 A3028 RMK A01 T00921092  RH  026%=      5-min Rain = 0
KSM1 111630Z 03017G22KT 09/M10 A3028 RMK A01 T00921095  RH  026%=      5-min Rain = 0
KSM1 111635Z 02017G22KT 09/M10 A3028 RMK A01 T00921096  RH  026%=      5-min Rain = 0
KSM1 111640Z 02018KT 10/M10 A3028 RMK A01 T00951098  RH  025%=      5-min Rain = 0
KSM1 111645Z 02017G22KT 10/M10 A3029 RMK A01 T00951100  RH  024%=      5-min Rain = 0
KSM1 111650Z 02017KT 10/M11 A3029 RMK A01 T00971105  RH  023%=      5-min Rain = 0
KSM1 111655Z 03018G23KT 10/M11 A3029 RMK A01 T00981108  RH  023%=      5-min Rain = 0
KSM1 111700Z 04016G21KT 10/M11 A3029 RMK A01 T00991108  RH  022%=      5-min Rain = 0
KSM1 111705Z 03016G21KT 10/M11 A3029 RMK A01 T01001110  RH  022%=      5-min Rain = 0
KSM1 111710Z 03019KT 10/M11 A3029 RMK A01 T01031113  RH  021%=      5-min Rain = 0
KSM1 111715Z 03017KT 10/M12 A3029 RMK A01 T01041115  RH  020%=      5-min Rain = 0
KSM1 111720Z 03017G22KT 11/M12 A3029 RMK A01 T01051115  RH  020%=      5-min Rain = 0
KSM1 111725Z 03017G24KT 11/M11 A3029 RMK A01 T01071111  RH  021%=      5-min Rain = 0
KSM1 111730Z 03018G25KT 11/M11 A3029 RMK A01 T01061114  RH  020%=      5-min Rain = 0
KSM1 111735Z 04017KT 11/M11 A3029 RMK A01 T01051114  RH  021%=      5-min Rain = 0
KSM1 111740Z 03016G21KT 11/M11 A3029 RMK A01 T01051114  RH  020%=      5-min Rain = 0
KSM1 111745Z 02016KT 11/M11 A3029 RMK A01 T01061111  RH  021%=      5-min Rain = 0
KSM1 111750Z 02017G22KT 10/M11 A3029 RMK A01 T01041111  RH  021%=      5-min Rain = 0
KSM1 111755Z 02016G23KT 10/M11 A3029 RMK A01 T01041111  RH  021%=      5-min Rain = 0
KSM1 111800Z 02016KT 10/M11 A303 RMK A01 T01041111  RH  021%=      5-min Rain = 0
KSM1 111805Z 02016G22KT 10/M11 A303 RMK A01 T01031109  RH  022%=      5-min Rain = 0
KSM1 111810Z 02016G21KT 10/M11 A303 RMK A01 T01011107  RH  022%=      5-min Rain = 0
KSM1 111815Z 02016G21KT 10/M11 A303 RMK A01 T01011109  RH  022%=      5-min Rain = 0
KSM1 111820Z 02014G20KT 10/M11 A303 RMK A01 T01001108  RH  022%=      5-min Rain = 0
KSM1 111825Z 02016G21KT 10/M11 A303 RMK A01 T00991111  RH  022%=      5-min Rain = 0
KSM1 111830Z 02015G20KT 10/M11 A303 RMK A01 T00991111  RH  022%=      5-min Rain = 0
KSM1 111835Z 02014G20KT 10/M11 A303 RMK A01 T01001108  RH  022%=      5-min Rain = 0
KSM1 111840Z 02013KT 10/M11 A3031 RMK A01 T01001105  RH  023%=      5-min Rain = 0
KSM1 111845Z 02014G20KT 10/M11 A303 RMK A01 T00991106  RH  023%=      5-min Rain = 0
KSM1 111850Z 03015KT 10/M11 A303 RMK A01 T00981108  RH  023%=      5-min Rain = 0
KSM1 111855Z 02015KT 10/M11 A303 RMK A01 T00981110  RH  022%=      5-min Rain = 0
KSM1 111900Z 03015G21KT 10/M11 A303 RMK A01 T00981114  RH  021%=      5-min Rain = 0
KSM1 111905Z 03016G21KT 10/M12 A303 RMK A01 T00981116  RH  021%=      5-min Rain = 0
KSM1 111910Z 03014G19KT 10/M12 A303 RMK A01 T00991115  RH  021%=      5-min Rain = 0
KSM1 111915Z 02016KT 10/M11 A303 RMK A01 T00981113  RH  022%=      5-min Rain = 0
KSM1 111920Z 02015G20KT 10/M11 A303 RMK A01 T00991106  RH  023%=      5-min Rain = 0
KSM1 111925Z 03014G19KT 10/M10 A303 RMK A01 T00981103  RH  024%=      5-min Rain = 0
KSM1 111930Z 03016KT 10/M10 A3029 RMK A01 T00961102  RH  024%=      5-min Rain = 0
KSM1 111935Z 03012KT 10/M10 A3029 RMK A01 T00961101  RH  024%=      5-min Rain = 0
KSM1 111940Z 03014G19KT 10/M10 A3029 RMK A01 T00971100  RH  024%=      5-min Rain = 0
KSM1 111945Z 02012G17KT 10/M10 A3029 RMK A01 T00991098  RH  024%=      5-min Rain = 0
KSM1 111950Z 03012G17KT 10/M10 A3029 RMK A01 T01011100  RH  024%=      5-min Rain = 0
KSM1 111955Z 03014KT 10/M10 A3029 RMK A01 T01001100  RH  024%=      5-min Rain = 0
KSM1 112000Z 03013G18KT 10/M10 A3029 RMK A01 T00991096  RH  025%=      5-min Rain = 0
KSM1 112005Z 02012KT 10/M09 A3029 RMK A01 T01011094  RH  025%=      5-min Rain = 0
KSM1 112010Z 03012KT 10/M09 A3028 RMK A01 T01031093  RH  024%=      5-min Rain = 0
KSM1 112015Z 02012G17KT 10/M09 A3028 RMK A01 T01031093  RH  024%=      5-min Rain = 0
KSM1 112020Z 03013KT 10/M09 A3028 RMK A01 T01041094  RH  024%=      5-min Rain = 0
KSM1 112025Z 02012G19KT 11/M09 A3027 RMK A01 T01061093  RH  024%=      5-min Rain = 0
KSM1 112030Z 03013KT 11/M09 A3027 RMK A01 T01071090  RH  024%=      5-min Rain = 0
KSM1 112035Z 03013KT 11/M09 A3027 RMK A01 T01081088  RH  025%=      5-min Rain = 0
KSM1 112040Z 04011G16KT 11/M09 A3027 RMK A01 T01081088  RH  025%=      5-min Rain = 0
KSM1 112045Z 03012KT 11/M09 A3027 RMK A01 T01091087  RH  025%=      5-min Rain = 0
KSM1 112050Z 02013KT 11/M08 A3027 RMK A01 T01081082  RH  026%=      5-min Rain = 0
KSM1 112055Z 03012KT 11/M08 A3027 RMK A01 T01061077  RH  027%=      5-min Rain = 0
KSM1 112100Z 03011G16KT 11/M08 A3027 RMK A01 T01071081  RH  026%=      5-min Rain = 0
KSM1 112105Z 03013KT 11/M08 A3027 RMK A01 T01091084  RH  025%=      5-min Rain = 0
KSM1 112110Z 04012KT 11/M09 A3027 RMK A01 T01091087  RH  025%=      5-min Rain = 0
KSM1 112115Z 04012KT 11/M09 A3026 RMK A01 T01101094  RH  023%=      5-min Rain = 0
KSM1 112120Z 03012KT 11/M10 A3026 RMK A01 T01111096  RH  023%=      5-min Rain = 0
KSM1 112125Z 04011KT 11/M10 A3026 RMK A01 T01111097  RH  022%=      5-min Rain = 0
KSM1 112130Z 04013KT 11/M10 A3026 RMK A01 T01111098  RH  022%=      5-min Rain = 0
KSM1 112135Z 04012KT 11/M10 A3026 RMK A01 T01111096  RH  023%=      5-min Rain = 0
KSM1 112140Z 04011KT 11/M10 A3026 RMK A01 T01121095  RH  023%=      5-min Rain = 0
KSM1 112145Z 04012G17KT 11/M10 A3026 RMK A01 T01121096  RH  023%=      5-min Rain = 0
KSM1 112150Z 03012KT 11/M10 A3026 RMK A01 T01131095  RH  023%=      5-min Rain = 0
KSM1 112155Z 04012G17KT 11/M09 A3026 RMK A01 T01131093  RH  023%=      5-min Rain = 0
KSM1 112200Z 04011KT 11/M09 A3026 RMK A01 T01121092  RH  023%=      5-min Rain = 0
KSM1 112205Z 04013KT 11/M09 A3026 RMK A01 T01111088  RH  024%=      5-min Rain = 0
KSM1 112210Z 03011KT 11/M09 A3026 RMK A01 T01101087  RH  024%=      5-min Rain = 0
KSM1 112215Z 03010KT 11/M09 A3026 RMK A01 T01101088  RH  024%=      5-min Rain = 0
KSM1 112220Z 03011KT 11/M09 A3026 RMK A01 T01121092  RH  023%=      5-min Rain = 0
KSM1 112225Z 02013KT 11/M09 A3025 RMK A01 T01121090  RH  024%=      5-min Rain = 0
KSM1 112230Z 02014KT 11/M09 A3026 RMK A01 T01111089  RH  024%=      5-min Rain = 0
KSM1 112235Z 03013KT 11/M09 A3026 RMK A01 T01111090  RH  024%=      5-min Rain = 0
KSM1 112240Z 02012KT 11/M09 A3026 RMK A01 T01111087  RH  024%=      5-min Rain = 0
KSM1 112245Z 02013G18KT 11/M08 A3026 RMK A01 T01121084  RH  025%=      5-min Rain = 0
KSM1 112250Z 03011KT 11/M08 A3026 RMK A01 T01121080  RH  025%=      5-min Rain = 0
KSM1 112255Z 03012KT 11/M08 A3025 RMK A01 T01121080  RH  025%=      5-min Rain = 0
KSM1 112300Z 03013KT 11/M08 A3025 RMK A01 T01131076  RH  026%=      5-min Rain = 0
KSM1 112305Z 03012KT 11/M08 A3025 RMK A01 T01131076  RH  026%=      5-min Rain = 0
KSM1 112310Z 03010KT 11/M08 A3025 RMK A01 T01131078  RH  026%=      5-min Rain = 0
KSM1 112315Z 02010KT 11/M08 A3026 RMK A01 T01141077  RH  026%=      5-min Rain = 0
KSM1 112320Z 02009KT 11/M08 A3027 RMK A01 T01141077  RH  026%=      5-min Rain = 0
KSM1 112325Z 03008KT 11/M08 A3027 RMK A01 T01141076  RH  026%=      5-min Rain = 0
KSM1 112330Z 03007KT 11/M08 A3027 RMK A01 T01131076  RH  026%=      5-min Rain = 0
KSM1 112335Z 04008KT 11/M08 A3026 RMK A01 T01141077  RH  026%=      5-min Rain = 0
KSM1 112340Z 04007KT 11/M08 A3027 RMK A01 T01141077  RH  026%=      5-min Rain = 0
KSM1 112345Z 03005KT 12/M08 A3027 RMK A01 T01151076  RH  026%=      5-min Rain = 0
KSM1 112350Z 04005KT 12/M08 A3027 RMK A01 T01161077  RH  026%=      5-min Rain = 0
KSM1 112355Z 02005KT 12/M08 A3027 RMK A01 T01161077  RH  026%=      5-min Rain = 0
KSM1 120000Z 00005KT 12/M08 A3027 RMK A01 T01161079  RH  025%=      5-min Rain = 0
KSM1 120005Z 35005KT 12/M08 A3027 RMK A01 T01161079  RH  025%=      5-min Rain = 0
KSM1 120010Z 35005KT 12/M08 A3028 RMK A01 T01151081  RH  025%=      5-min Rain = 0
KSM1 120015Z 35005KT 11/M08 A3028 RMK A01 T01141081  RH  025%=      5-min Rain = 0
KSM1 120020Z 36005KT 11/M08 A3028 RMK A01 T01141082  RH  025%=      5-min Rain = 0
KSM1 120025Z 34005KT 11/M08 A3028 RMK A01 T01141082  RH  025%=      5-min Rain = 0
KSM1 120030Z 33004KT 11/M08 A3028 RMK A01 T01141079  RH  025%=      5-min Rain = 0
KSM1 120035Z 33003KT 11/M08 A3028 RMK A01 T01131077  RH  026%=      5-min Rain = 0
KSM1 120040Z 34002KT 11/M08 A3028 RMK A01 T01121077  RH  026%=      5-min Rain = 0
KSM1 120045Z 34002KT 11/M08 A3028 RMK A01 T01101078  RH  026%=      5-min Rain = 0
KSM1 120050Z 01002KT 11/M08 A3028 RMK A01 T01091080  RH  026%=      5-min Rain = 0
KSM1 120055Z 02003KT 11/M08 A3028 RMK A01 T01071083  RH  026%=      5-min Rain = 0
KSM1 120100Z 03004KT 10/M09 A3029 RMK A01 T01041086  RH  026%=      5-min Rain = 0
KSM1 120105Z 02004KT 10/M09 A3029 RMK A01 T01011087  RH  026%=      5-min Rain = 0
KSM1 120110Z 02004KT 10/M09 A3029 RMK A01 T00991085  RH  027%=      5-min Rain = 0
KSM1 120115Z 03004KT 10/M09 A3029 RMK A01 T00971085  RH  027%=      5-min Rain = 0
KSM1 120120Z 03004KT 10/M09 A3029 RMK A01 T00951085  RH  028%=      5-min Rain = 0
KSM1 120125Z 02004KT 10/M09 A3029 RMK A01 T00951085  RH  028%=      5-min Rain = 0
KSM1 120130Z 02004KT 10/M09 A3029 RMK A01 T00961085  RH  027%=      5-min Rain = 0
KSM1 120135Z 01004KT 10/M09 A3029 RMK A01 T00951088  RH  027%=      5-min Rain = 0
KSM1 120140Z 01004KT 09/M09 A3029 RMK A01 T00941091  RH  026%=      5-min Rain = 0
KSM1 120145Z 02004KT 09/M09 A3029 RMK A01 T00941093  RH  026%=      5-min Rain = 0
KSM1 120150Z 02004KT 10/M09 A303 RMK A01 T00951093  RH  026%=      5-min Rain = 0
KSM1 120155Z 02004KT 10/M09 A303 RMK A01 T00961094  RH  025%=      5-min Rain = 0
KSM1 120200Z 03004KT 10/M10 A303 RMK A01 T00961095  RH  025%=      5-min Rain = 0
KSM1 120205Z 02004KT 10/M09 A303 RMK A01 T00951094  RH  026%=      5-min Rain = 0
KSM1 120210Z 03005KT 10/M09 A303 RMK A01 T00951093  RH  026%=      5-min Rain = 0
KSM1 120215Z 03006KT 10/M10 A3031 RMK A01 T00991097  RH  024%=      5-min Rain = 0
KSM1 120220Z 03006KT 10/M10 A3031 RMK A01 T01011100  RH  024%=      5-min Rain = 0
KSM1 120225Z 02006KT 10/M10 A3031 RMK A01 T01001100  RH  024%=      5-min Rain = 0
KSM1 120230Z 02006KT 10/M10 A3032 RMK A01 T00991100  RH  024%=      5-min Rain = 0
KSM1 120235Z 02005KT 10/M10 A3032 RMK A01 T00961100  RH  024%=      5-min Rain = 0
KSM1 120240Z 01005KT 09/M10 A3032 RMK A01 T00911100  RH  025%=      5-min Rain = 0
KSM1 120245Z 01006KT 09/M10 A3032 RMK A01 T00871103  RH  025%=      5-min Rain = 0
KSM1 120250Z 01006KT 08/M10 A3032 RMK A01 T00841104  RH  026%=      5-min Rain = 0
KSM1 120255Z 01006KT 08/M10 A3032 RMK A01 T00811103  RH  026%=      5-min Rain = 0
KSM1 120300Z 01006KT 08/M10 A3032 RMK A01 T00781102  RH  027%=      5-min Rain = 0
KSM1 120305Z 01006KT 08/M10 A3032 RMK A01 T00771102  RH  027%=      5-min Rain = 0
KSM1 120310Z 01006KT 07/M11 A3032 RMK A01 T00741105  RH  027%=      5-min Rain = 0
KSM1 120315Z 01006KT 07/M10 A3032 RMK A01 T00701104  RH  028%=      5-min Rain = 0
KSM1 120320Z 01007KT 07/M10 A3032 RMK A01 T00681104  RH  028%=      5-min Rain = 0
KSM1 120325Z 01007KT 07/M10 A3032 RMK A01 T00681103  RH  029%=      5-min Rain = 0
KSM1 120330Z 01007KT 07/M10 A3032 RMK A01 T00681104  RH  028%=      5-min Rain = 0
KSM1 120335Z 01007KT 07/M11 A3033 RMK A01 T00661105  RH  029%=      5-min Rain = 0
KSM1 120340Z 00006KT 06/M11 A3033 RMK A01 T00631105  RH  029%=      5-min Rain = 0
KSM1 120345Z 36006KT 06/M10 A3033 RMK A01 T00611104  RH  030%=      5-min Rain = 0
KSM1 120350Z 35005KT 06/M11 A3033 RMK A01 T00621106  RH  029%=      5-min Rain = 0
KSM1 120355Z 34005KT 07/M11 A3033 RMK A01 T00661106  RH  028%=      5-min Rain = 0
KSM1 120400Z 33004KT 07/M10 A3033 RMK A01 T00711100  RH  029%=      5-min Rain = 0
KSM1 120405Z 33004KT 07/M09 A3034 RMK A01 T00721089  RH  031%=      5-min Rain = 0
KSM1 120410Z 34004KT 07/M08 A3034 RMK A01 T00701083  RH  033%=      5-min Rain = 0
KSM1 120415Z 35005KT 07/M08 A3034 RMK A01 T00661077  RH  036%=      5-min Rain = 0
KSM1 120420Z 35005KT 06/M08 A3034 RMK A01 T00641082  RH  035%=      5-min Rain = 0
KSM1 120425Z 35006KT 07/M09 A3034 RMK A01 T00671093  RH  031%=      5-min Rain = 0
KSM1 120430Z 36006KT 07/M10 A3034 RMK A01 T00711100  RH  029%=      5-min Rain = 0
KSM1 120435Z 00007KT 07/M10 A3034 RMK A01 T00721101  RH  028%=      5-min Rain = 0
KSM1 120440Z 00006KT 07/M10 A3034 RMK A01 T00721102  RH  028%=      5-min Rain = 0
KSM1 120445Z 36006KT 07/M10 A3034 RMK A01 T00711103  RH  028%=      5-min Rain = 0
KSM1 120450Z 36006KT 07/M10 A3034 RMK A01 T00711104  RH  028%=      5-min Rain = 0
KSM1 120455Z 36006KT 07/M10 A3034 RMK A01 T00701103  RH  028%=      5-min Rain = 0

Page generated in 0.0107 seconds.